Time;durP1;ratioP1;P1;durP2;ratioP2;P2;SDS_P1;SDS_P2;PMS_P1;PMS_P2;Temp;Humidity;BMP_temperature;BMP_pressure;BME280_temperature;BME280_humidity;BME280_pressure;Samples;Min_cycle;Max_cycle;Signal;HPM_P1;HPM_P2
2020/12/27 00:07:11;;;;;;;1.10;1.10;;;6.20;99.90;;;;;;4696941;30;20483;-80
2020/12/27 00:10:43;;;;;;;1.60;1.50;;;6.30;99.90;;;;;;4714995;30;20575;-80
2020/12/27 00:13:58;;;;;;;0.90;0.90;;;6.40;99.90;;;;;;4707141;30;20502;-79
2020/12/27 00:16:40;;;;;;;1.10;1.00;;;6.40;99.90;;;;;;4780544;30;20527;-81
2020/12/27 00:19:58;;;;;;;1.10;1.10;;;6.80;99.90;;;;;;4776719;30;20445;-80
2020/12/27 00:23:28;;;;;;;1.10;1.10;;;6.80;99.90;;;;;;4770212;29;20461;-80
2020/12/27 00:26:41;;;;;;;3.50;1.27;;;6.20;99.90;;;;;;4818708;29;20503;-80
2020/12/27 00:29:55;;;;;;;1.33;0.90;;;6.10;99.90;;;;;;4749904;30;20501;-79
2020/12/27 00:32:59;;;;;;;1.00;0.90;;;6.10;99.90;;;;;;4734894;30;20520;-80
2020/12/27 00:35:59;;;;;;;0.90;0.90;;;6.10;99.90;;;;;;4746409;30;20482;-82
2020/12/27 00:38:45;;;;;;;1.10;1.00;;;6.10;99.90;;;;;;4788727;29;20493;-80
2020/12/27 00:41:36;;;;;;;0.80;0.80;;;5.80;99.90;;;;;;4802649;29;20543;-82
2020/12/27 00:44:30;;;;;;;1.20;0.93;;;6.30;99.90;;;;;;4851003;29;20532;-80
2020/12/27 00:47:13;;;;;;;1.23;1.20;;;6.10;99.90;;;;;;4873435;29;20444;-79
2020/12/27 00:50:23;;;;;;;;;;;;;;;;;;;;;
2020/12/27 00:53:11;;;;;;;0.60;0.60;;;6.10;99.90;;;;;;4884102;29;20476;-79
2020/12/27 00:56:21;;;;;;;0.80;0.80;;;6.10;99.90;;;;;;4883399;29;20495;-80
2020/12/27 00:59:42;;;;;;;1.30;1.20;;;6.20;99.90;;;;;;4884848;29;20549;-77
2020/12/27 01:02:28;;;;;;;1.20;1.10;;;6.20;99.90;;;;;;4887919;29;20472;-78
2020/12/27 01:09:04;;;;;;;0.90;0.90;;;6.10;99.90;;;;;;4943028;28;20476;-79
2020/12/27 01:12:23;;;;;;;0.80;0.60;;;6.00;99.90;;;;;;4901247;29;20447;-79
2020/12/27 01:15:44;;;;;;;0.83;0.83;;;6.10;99.90;;;;;;4857107;29;20476;-80
2020/12/27 01:18:37;;;;;;;1.30;0.90;;;6.10;99.90;;;;;;4880601;29;20445;-79
2020/12/27 01:21:53;;;;;;;1.23;1.13;;;6.10;99.90;;;;;;4901456;29;20511;-79
2020/12/27 01:25:07;;;;;;;;;;;;;;;;;;;;;
2020/12/27 01:31:44;;;;;;;;;;;;;;;;;;;;;
2020/12/27 01:35:06;;;;;;;1.50;1.20;;;6.00;99.90;;;;;;4853479;29;20504;-79
2020/12/27 01:38:05;;;;;;;0.87;0.87;;;6.10;99.90;;;;;;4854802;29;20931;-81
2020/12/27 01:45:10;;;;;;;1.07;0.90;;;6.20;99.90;;;;;;4802494;29;21042;-79
2020/12/27 01:48:35;;;;;;;;;;;;;;;;;;;;;
2020/12/27 01:51:35;;;;;;;0.80;0.80;;;6.00;99.90;;;;;;4870403;29;20570;-81
2020/12/27 01:54:39;;;;;;;1.10;1.00;;;6.20;99.90;;;;;;4865515;29;20456;-79
2020/12/27 01:58:11;;;;;;;0.80;0.80;;;6.20;99.90;;;;;;4889382;29;20556;-81
2020/12/27 02:01:57;;;;;;;;;;;;;;;;;;;;;
2020/12/27 02:08:51;;;;;;;1.63;1.07;;;6.90;99.90;;;;;;4924147;29;21135;-80
2020/12/27 02:12:14;;;;;;;0.70;0.70;;;6.10;99.90;;;;;;4940554;29;20528;-81
2020/12/27 02:15:12;;;;;;;1.03;1.00;;;6.20;99.90;;;;;;4925315;29;20624;-81
2020/12/27 02:18:13;;;;;;;1.00;0.90;;;6.20;99.90;;;;;;4923125;29;20446;-80
2020/12/27 02:21:11;;;;;;;1.10;0.87;;;6.80;99.90;;;;;;4907700;29;20461;-81
2020/12/27 02:24:52;;;;;;;;;;;;;;;;;;;;;
2020/12/27 02:32:01;;;;;;;1.20;0.70;;;6.30;99.90;;;;;;4853209;29;20488;-82
2020/12/27 02:35:06;;;;;;;2.50;1.13;;;6.70;99.90;;;;;;4856473;29;21023;-82
2020/12/27 02:38:29;;;;;;;0.60;0.60;;;6.30;99.90;;;;;;4839052;29;20469;-79
2020/12/27 02:41:52;;;;;;;0.90;0.80;;;6.30;99.90;;;;;;4841089;29;20474;-81
2020/12/27 02:45:35;;;;;;;;;;;;;;;;;;;;;
2020/12/27 03:11:00;;;;;;;1.17;0.90;;;6.10;99.70;;;;;;4925875;28;20461;-80
2020/12/27 03:17:57;;;;;;;0.70;0.60;;;6.20;99.60;;;;;;4896966;28;20494;-79
2020/12/27 03:21:18;;;;;;;3.43;1.90;;;6.40;99.70;;;;;;4942356;28;20465;-80
2020/12/27 03:27:59;;;;;;;1.17;0.70;;;6.40;99.60;;;;;;4868700;29;20451;-80
2020/12/27 03:30:59;;;;;;;;;;;;;;;;;;;;;
2020/12/27 03:33:57;;;;;;;0.53;0.53;;;6.30;99.90;;;;;;4897040;29;20516;-78
2020/12/27 03:36:46;;;;;;;1.73;0.83;;;6.40;99.90;;;;;;4890251;29;20566;-77
2020/12/27 03:39:21;;;;;;;0.70;0.50;;;6.40;99.50;;;;;;4900614;29;20506;-80
2020/12/27 03:42:25;;;;;;;;;;;;;;;;;;;;;
2020/12/27 03:45:24;;;;;;;0.83;0.83;;;6.30;99.60;;;;;;4899915;29;20459;-78
2020/12/27 03:48:15;;;;;;;0.80;0.80;;;6.50;99.90;;;;;;4887674;29;20508;-80
2020/12/27 03:51:24;;;;;;;1.77;0.67;;;6.50;99.60;;;;;;4904053;29;20438;-79
2020/12/27 03:54:11;;;;;;;0.70;0.70;;;6.50;99.40;;;;;;4799250;29;20467;-81
2020/12/27 04:01:42;;;;;;;0.63;0.63;;;6.90;99.90;;;;;;4707835;30;20476;-80
2020/12/27 04:08:21;;;;;;;0.70;0.57;;;6.40;99.80;;;;;;4766885;29;20487;-80
2020/12/27 04:11:55;;;;;;;0.60;0.60;;;6.40;99.90;;;;;;4755863;30;20478;-80
2020/12/27 04:15:37;;;;;;;0.83;0.50;;;6.40;99.60;;;;;;4713784;30;20495;-80
2020/12/27 04:18:31;;;;;;;0.60;0.60;;;6.10;99.90;;;;;;4719403;29;20500;-80
2020/12/27 04:22:08;;;;;;;1.80;0.53;;;6.30;99.40;;;;;;4844288;29;22072;-79
2020/12/27 04:25:35;;;;;;;;;;;;;;;;;;;;;
2020/12/27 04:28:56;;;;;;;0.50;0.50;;;6.20;99.40;;;;;;4828794;29;20537;-78
2020/12/27 04:32:06;;;;;;;0.60;0.40;;;6.10;99.60;;;;;;4772066;29;20983;-79
2020/12/27 04:35:32;;;;;;;3.23;0.60;;;6.20;99.60;;;;;;4775775;29;20499;-78
2020/12/27 04:38:36;;;;;;;0.40;0.40;;;6.20;99.50;;;;;;4801844;29;20605;-80
2020/12/27 04:42:26;;;;;;;;;;;;;;;;;;;;;
2020/12/27 04:49:09;;;;;;;1.17;0.50;;;6.20;99.70;;;;;;4798773;29;20498;-80
2020/12/27 04:52:28;;;;;;;;;;;;;;;;;;;;;
2020/12/27 04:55:43;;;;;;;0.60;0.40;;;6.10;99.90;;;;;;4800481;29;20957;-79
2020/12/27 04:58:36;;;;;;;;;;;;;;;;;;;;;
2020/12/27 05:01:54;;;;;;;0.50;0.50;;;6.20;99.70;;;;;;4824929;29;20497;-79
2020/12/27 05:08:14;;;;;;;0.50;0.50;;;6.40;99.50;;;;;;4957204;28;20479;-80
2020/12/27 05:11:10;;;;;;;0.40;0.40;;;6.30;99.50;;;;;;4951430;28;20469;-80
2020/12/27 05:14:21;;;;;;;0.43;0.43;;;6.30;99.60;;;;;;4947953;28;20500;-79
2020/12/27 05:20:30;;;;;;;0.77;0.50;;;6.40;99.40;;;;;;4959766;28;20445;-79
2020/12/27 05:23:39;;;;;;;2.10;0.50;;;6.30;99.80;;;;;;4915614;29;20593;-80
2020/12/27 05:26:43;;;;;;;0.40;0.40;;;6.40;99.70;;;;;;4876276;29;20710;-79
2020/12/27 05:29:34;;;;;;;0.77;0.70;;;7.10;99.80;;;;;;4783191;29;20480;-81
2020/12/27 05:36:34;;;;;;;0.60;0.40;;;6.40;99.50;;;;;;4749288;30;20516;-80
2020/12/27 05:39:38;;;;;;;0.53;0.53;;;7.00;99.90;;;;;;4760782;30;20501;-79
2020/12/27 05:42:31;;;;;;;0.43;0.43;;;6.50;99.30;;;;;;4760591;30;20478;-79
2020/12/27 05:45:40;;;;;;;0.50;0.50;;;6.30;99.70;;;;;;4760659;30;20541;-78
2020/12/27 05:48:34;;;;;;;0.60;0.50;;;6.70;99.90;;;;;;4765534;29;20531;-79
2020/12/27 05:51:21;;;;;;;0.50;0.50;;;7.30;99.90;;;;;;4755437;29;20502;-79
2020/12/27 05:54:37;;;;;;;0.50;0.50;;;6.60;99.90;;;;;;4760814;29;20463;-78
2020/12/27 05:57:36;;;;;;;0.50;0.50;;;6.50;99.90;;;;;;4821443;29;20461;-80
2020/12/27 06:08:43;;;;;;;0.40;0.40;;;6.40;99.70;;;;;;4956725;28;20453;-79
2020/12/27 06:12:46;;;;;;;0.60;0.50;;;6.50;99.60;;;;;;4938821;28;20473;-79
2020/12/27 06:20:17;;;;;;;;;;;;;;;;;;;;;
2020/12/27 06:23:08;;;;;;;0.40;0.40;;;6.50;99.30;;;;;;4933336;29;20482;-78
2020/12/27 06:33:52;;;;;;;0.30;0.30;;;6.40;99.30;;;;;;4772699;30;20469;-79
2020/12/27 06:37:09;;;;;;;0.50;0.50;;;6.50;99.40;;;;;;4762643;30;20534;-79
2020/12/27 06:40:30;;;;;;;0.40;0.40;;;6.50;99.30;;;;;;4845113;29;20463;-77
2020/12/27 06:44:20;;;;;;;0.50;0.50;;;6.60;99.30;;;;;;4800727;29;20439;-80
2020/12/27 06:47:31;;;;;;;0.40;0.30;;;6.60;99.30;;;;;;4845673;29;20525;-80
2020/12/27 06:50:57;;;;;;;0.40;0.30;;;6.60;99.10;;;;;;4852313;29;20977;-79
2020/12/27 06:54:10;;;;;;;0.40;0.40;;;6.50;99.00;;;;;;4791363;29;20453;-80
2020/12/27 06:57:34;;;;;;;1.37;0.40;;;6.60;99.10;;;;;;4761058;29;20448;-80
2020/12/27 07:01:09;;;;;;;0.40;0.40;;;6.50;99.60;;;;;;4781116;29;20483;-79
2020/12/27 07:08:30;;;;;;;0.30;0.30;;;6.60;99.40;;;;;;4758043;29;21017;-78
2020/12/27 07:11:40;;;;;;;0.30;0.30;;;6.50;99.30;;;;;;4787429;29;20486;-80
2020/12/27 07:14:46;;;;;;;0.40;0.40;;;7.40;99.90;;;;;;4802415;29;20873;-80
2020/12/27 07:17:59;;;;;;;;;;;;;;;;;;;;;
2020/12/27 07:21:07;;;;;;;0.40;0.37;;;7.00;99.20;;;;;;4874591;29;20472;-79
2020/12/27 07:24:19;;;;;;;0.50;0.50;;;6.60;99.20;;;;;;4880453;29;20483;-77
2020/12/27 07:27:18;;;;;;;0.33;0.33;;;6.60;99.10;;;;;;4873524;29;20700;-80
2020/12/27 07:30:25;;;;;;;0.50;0.30;;;6.50;99.60;;;;;;4864207;29;20441;-79
2020/12/27 07:37:21;;;;;;;;;;;;;;;;;;;;;
2020/12/27 07:43:30;;;;;;;1.60;0.50;;;6.40;99.90;;;;;;4844183;29;20454;-78
2020/12/27 07:46:52;;;;;;;0.40;0.40;;;6.50;99.90;;;;;;4883305;29;20443;-82
2020/12/27 07:50:22;;;;;;;0.63;0.43;;;7.10;99.90;;;;;;4897162;29;20490;-82
2020/12/27 07:57:16;;;;;;;0.30;0.30;;;6.60;99.90;;;;;;4853059;29;20493;-79
2020/12/27 08:00:06;;;;;;;0.50;0.40;;;6.60;99.90;;;;;;4871140;29;20553;-79
2020/12/27 08:03:38;;;;;;;0.40;0.40;;;6.40;99.90;;;;;;4901926;29;20459;-78
2020/12/27 08:06:46;;;;;;;1.07;0.40;;;6.50;99.90;;;;;;4916528;29;20608;-80
2020/12/27 08:10:21;;;;;;;;;;;;;;;;;;;;;
2020/12/27 08:17:36;;;;;;;0.60;0.50;;;6.30;99.90;;;;;;4889844;29;20490;-80
2020/12/27 08:20:41;;;;;;;0.63;0.40;;;6.60;99.90;;;;;;4892444;29;20564;-80
2020/12/27 08:27:30;;;;;;;0.30;0.30;;;6.60;99.90;;;;;;4899169;29;20471;-81
2020/12/27 08:30:56;;;;;;;;;;;;;;;;;;;;;
2020/12/27 08:34:27;;;;;;;;;;;;;;;;;;;;;
2020/12/27 08:37:56;;;;;;;0.70;0.50;;;6.60;99.90;;;;;;4875485;29;20491;-81
2020/12/27 08:41:46;;;;;;;0.83;0.50;;;6.70;99.90;;;;;;4857165;29;21202;-78
2020/12/27 08:45:29;;;;;;;1.00;0.50;;;6.70;99.90;;;;;;4836089;29;21467;-78
2020/12/27 08:49:23;;;;;;;0.60;0.40;;;6.80;99.90;;;;;;4904433;29;20478;-81
2020/12/27 08:52:45;;;;;;;;;;;;;;;;;;;;;
2020/12/27 09:00:03;;;;;;;0.40;0.30;;;6.90;99.90;;;;;;4864417;29;20641;-80
2020/12/27 09:10:43;;;;;;;0.40;0.30;;;6.90;99.40;;;;;;4860982;29;20482;-81
2020/12/27 09:13:53;;;;;;;0.50;0.40;;;7.00;99.20;;;;;;4873381;29;20553;-79
2020/12/27 09:21:26;;;;;;;0.60;0.50;;;6.80;99.50;;;;;;4953779;28;20526;-78
2020/12/27 09:25:06;;;;;;;0.50;0.50;;;6.90;99.50;;;;;;4913521;28;20749;-78
2020/12/27 09:36:35;;;;;;;0.50;0.30;;;7.00;99.20;;;;;;4931620;29;20655;-79
2020/12/27 09:44:14;;;;;;;0.50;0.40;;;7.00;99.50;;;;;;4894737;29;20499;-80
2020/12/27 09:47:51;;;;;;;0.40;0.40;;;7.00;99.20;;;;;;4808592;29;20423;-80
2020/12/27 09:51:09;;;;;;;0.53;0.50;;;7.00;99.50;;;;;;4790906;29;20817;-79
2020/12/27 09:54:36;;;;;;;0.63;0.47;;;7.10;99.40;;;;;;4799195;29;20467;-81
2020/12/27 09:57:46;;;;;;;;;;;;;;;;;;;;;
2020/12/27 10:00:59;;;;;;;0.40;0.40;;;7.00;99.50;;;;;;4748101;30;20501;-78
2020/12/27 10:03:52;;;;;;;0.83;0.80;;;7.00;99.80;;;;;;4752517;30;20454;-80
2020/12/27 10:07:08;;;;;;;1.00;0.40;;;7.00;99.50;;;;;;4760213;30;20480;-80
2020/12/27 10:13:17;;;;;;;1.00;0.70;;;7.00;99.50;;;;;;4839095;29;20854;-78
2020/12/27 10:16:09;;;;;;;;;;;;;;;;;;;;;
2020/12/27 10:26:33;;;;;;;0.50;0.50;;;7.10;99.50;;;;;;4886957;29;20484;-80
2020/12/27 10:30:10;;;;;;;;;;;;;;;;;;;;;
2020/12/27 10:33:12;;;;;;;1.17;0.70;;;7.20;99.20;;;;;;4951760;29;20540;-80
2020/12/27 10:36:23;;;;;;;2.00;1.27;;;7.30;99.30;;;;;;4949016;28;20492;-79
2020/12/27 10:39:17;;;;;;;;;;;;;;;;;;;;;
2020/12/27 10:42:27;;;;;;;1.80;0.87;;;7.40;99.00;;;;;;4946892;29;20476;-81
2020/12/27 10:52:59;;;;;;;0.40;0.40;;;7.20;99.10;;;;;;4898639;28;20553;-81
2020/12/27 10:56:28;;;;;;;;;;;;;;;;;;;;;
2020/12/27 10:59:46;;;;;;;0.70;0.50;;;7.10;99.20;;;;;;4960518;29;20455;-78
2020/12/27 11:02:59;;;;;;;0.70;0.70;;;7.20;99.30;;;;;;4957863;29;20572;-79
2020/12/27 11:06:06;;;;;;;0.50;0.50;;;7.20;99.40;;;;;;4941335;28;20448;-77
2020/12/27 11:09:21;;;;;;;;;;;;;;;;;;;;;
2020/12/27 11:12:24;;;;;;;0.70;0.60;;;7.10;99.20;;;;;;4946538;28;20447;-81
2020/12/27 11:21:36;;;;;;;0.87;0.60;;;7.30;98.80;;;;;;4957780;28;20477;-79
2020/12/27 11:24:29;;;;;;;0.50;0.50;;;7.20;98.80;;;;;;4884906;29;20468;-79
2020/12/27 11:31:09;;;;;;;0.40;0.40;;;7.30;98.80;;;;;;4880098;29;20550;-81
2020/12/27 11:34:02;;;;;;;4.90;0.70;;;7.40;98.20;;;;;;4861244;29;20993;-79
2020/12/27 11:37:33;;;;;;;0.40;0.40;;;7.40;98.30;;;;;;4898368;29;20496;-81
2020/12/27 11:45:04;;;;;;;0.40;0.40;;;7.40;98.30;;;;;;4779994;29;20449;-82
2020/12/27 11:48:06;;;;;;;0.47;0.47;;;7.40;98.40;;;;;;4795043;29;20458;-78
2020/12/27 11:51:34;;;;;;;0.80;0.80;;;7.40;98.20;;;;;;4811533;29;20588;-78
2020/12/27 11:55:23;;;;;;;0.60;0.60;;;7.30;98.60;;;;;;4800917;29;20474;-80
2020/12/27 11:58:34;;;;;;;0.60;0.50;;;7.30;98.90;;;;;;4799138;29;20463;-82
2020/12/27 12:05:06;;;;;;;0.50;0.50;;;7.50;98.90;;;;;;4915466;28;20547;-79
2020/12/27 12:08:06;;;;;;;2.10;0.50;;;7.40;99.10;;;;;;4941427;28;20456;-78
2020/12/27 12:11:06;;;;;;;0.40;0.40;;;7.40;99.00;;;;;;4951981;28;20469;-80
2020/12/27 12:14:03;;;;;;;0.43;0.43;;;7.40;98.90;;;;;;4957664;28;20551;-79
2020/12/27 12:17:10;;;;;;;0.47;0.40;;;7.40;99.10;;;;;;4963468;28;20564;-79
2020/12/27 12:19:57;;;;;;;2.10;0.50;;;7.40;99.10;;;;;;4949403;28;20452;-79
2020/12/27 12:25:53;;;;;;;1.00;0.50;;;7.20;99.40;;;;;;4940327;28;20453;-79
2020/12/27 12:29:14;;;;;;;;;;;;;;;;;;;;;
2020/12/27 12:35:41;;;;;;;;;;;;;;;;;;;;;
2020/12/27 12:38:28;;;;;;;0.60;0.50;;;7.40;98.70;;;;;;4925126;28;20453;-79
2020/12/27 12:42:17;;;;;;;0.40;0.40;;;7.30;99.00;;;;;;4900892;29;20466;-80
2020/12/27 12:45:20;;;;;;;0.50;0.50;;;7.40;98.70;;;;;;4883201;29;20487;-81
2020/12/27 12:48:11;;;;;;;0.60;0.60;;;7.40;98.70;;;;;;4884695;29;20486;-81
2020/12/27 12:51:29;;;;;;;0.80;0.80;;;7.30;98.90;;;;;;4918728;29;20467;-78
2020/12/27 12:54:53;;;;;;;6.03;0.57;;;7.30;99.10;;;;;;4894630;29;20464;-78
2020/12/27 12:58:27;;;;;;;;;;;;;;;;;;;;;
2020/12/27 13:05:18;;;;;;;0.57;0.50;;;7.50;98.50;;;;;;4847521;29;20461;-80
2020/12/27 13:08:46;;;;;;;0.50;0.50;;;7.50;98.60;;;;;;4777336;29;20461;-79
2020/12/27 13:11:32;;;;;;;;;;;;;;;;;;;;;
2020/12/27 13:18:21;;;;;;;0.50;0.50;;;7.50;98.40;;;;;;4823501;29;21062;-81
2020/12/27 13:22:17;;;;;;;;;;;;;;;;;;;;;
2020/12/27 13:25:49;;;;;;;;;;;;;;;;;;;;;
2020/12/27 13:28:56;;;;;;;0.87;0.40;;;7.30;98.70;;;;;;4770102;29;20456;-81
2020/12/27 13:36:22;;;;;;;0.43;0.40;;;7.30;99.00;;;;;;4817570;29;20517;-80
2020/12/27 13:51:31;;;;;;;0.50;0.50;;;7.30;99.20;;;;;;4810130;29;20495;-78
2020/12/27 13:54:48;;;;;;;0.73;0.40;;;7.20;99.40;;;;;;4843978;29;20511;-81
2020/12/27 13:58:33;;;;;;;;;;;;;;;;;;;;;
2020/12/27 14:09:06;;;;;;;0.47;0.47;;;7.20;99.70;;;;;;4926953;28;21007;-79
2020/12/27 14:12:53;;;;;;;;;;;;;;;;;;;;;
2020/12/27 14:20:28;;;;;;;0.40;0.40;;;7.10;99.90;;;;;;4872779;29;20447;-79
2020/12/27 14:24:00;;;;;;;0.50;0.50;;;7.20;99.90;;;;;;5093754;27;20304;-78
2020/12/27 14:27:48;;;;;;;;;;;;;;;;;;;;;
2020/12/27 14:31:50;;;;;;;;;;;;;;;;;;;;;
2020/12/27 14:35:13;;;;;;;0.77;0.60;;;7.10;99.90;;;;;;4885815;27;5322183;-80
2020/12/27 14:45:39;;;;;;;0.40;0.40;;;7.10;99.90;;;;;;4969867;28;20511;-79
2020/12/27 14:51:39;;;;;;;;;;;;;;;;;;;;;
2020/12/27 14:55:22;;;;;;;0.40;0.40;;;7.20;99.90;;;;;;5026179;28;20681;-77
2020/12/27 15:02:12;;;;;;;0.40;0.40;;;7.10;99.90;;;;;;4956814;28;20919;-80
2020/12/27 15:05:30;;;;;;;0.40;0.40;;;7.20;99.90;;;;;;5020836;28;20773;-77
2020/12/27 15:11:52;;;;;;;0.67;0.40;;;7.20;99.90;;;;;;5023286;28;20508;-82
2020/12/27 15:15:39;;;;;;;0.40;0.40;;;7.10;99.90;;;;;;4994266;28;21000;-81
2020/12/27 15:18:53;;;;;;;;;;;;;;;;;;;;;
2020/12/27 15:22:35;;;;;;;0.53;0.50;;;7.20;99.90;;;;;;4943617;29;20557;-78
2020/12/27 15:26:43;;;;;;;0.87;0.87;;;7.20;99.90;;;;;;4902006;29;20449;-80
2020/12/27 15:36:15;;;;;;;0.40;0.40;;;7.20;99.90;;;;;;5018228;28;20492;-79
2020/12/27 15:39:54;;;;;;;0.50;0.50;;;7.30;99.90;;;;;;4994067;28;21037;-81
2020/12/27 15:43:08;;;;;;;0.70;0.60;;;7.40;99.90;;;;;;4869425;29;20480;-79
2020/12/27 15:49:33;;;;;;;0.93;0.40;;;7.40;99.90;;;;;;4853761;29;21827;-80
2020/12/27 15:53:21;;;;;;;;;;;;;;;;;;;;;
2020/12/27 15:59:45;;;;;;;0.70;0.50;;;7.60;99.90;;;;;;4933316;29;20477;-81
2020/12/27 16:02:47;;;;;;;0.40;0.40;;;7.50;99.90;;;;;;4878577;29;20461;-80
2020/12/27 16:06:19;;;;;;;;;;;;;;;;;;;;;
2020/12/27 16:17:18;;;;;;;0.60;0.60;;;7.60;99.90;;;;;;5009808;22;21190;-80
2020/12/27 16:20:10;;;;;;;1.30;0.53;;;7.50;99.90;;;;;;4975702;28;20925;-81
2020/12/27 16:23:39;;;;;;;0.60;0.40;;;7.60;99.90;;;;;;4983331;28;20541;-81
2020/12/27 16:26:17;;;;;;;0.60;0.50;;;7.50;99.90;;;;;;4932278;28;20543;-81
2020/12/27 16:36:27;;;;;;;;;;;;;;;;;;;;;
2020/12/27 16:39:55;;;;;;;1.13;0.60;;;7.40;99.90;;;;;;4737255;30;20474;-80
2020/12/27 16:43:14;;;;;;;0.50;0.50;;;7.50;99.90;;;;;;4805290;29;20470;-80
2020/12/27 16:46:36;;;;;;;1.37;0.90;;;7.40;99.90;;;;;;4855366;29;20442;-81
2020/12/27 16:50:11;;;;;;;0.50;0.50;;;7.40;99.90;;;;;;4790791;29;20835;-78
2020/12/27 17:01:20;;;;;;;0.60;0.60;;;7.50;99.90;;;;;;4948599;29;20607;-79
2020/12/27 17:04:53;;;;;;;1.07;0.50;;;7.40;99.90;;;;;;4933120;29;20559;-79
2020/12/27 17:12:01;;;;;;;0.50;0.50;;;7.40;99.90;;;;;;4919339;29;20475;-78
2020/12/27 17:23:18;;;;;;;0.40;0.40;;;7.30;99.90;;;;;;4989082;28;20449;-80
2020/12/27 17:30:44;;;;;;;0.93;0.47;;;7.20;99.90;;;;;;4802119;29;20517;-80
2020/12/27 17:33:43;;;;;;;0.40;0.40;;;7.30;99.90;;;;;;4815188;29;21547;-81
2020/12/27 17:37:14;;;;;;;0.60;0.60;;;7.30;99.90;;;;;;4796663;29;20466;-78
2020/12/27 17:40:46;;;;;;;1.27;0.80;;;7.30;99.90;;;;;;4812175;29;20553;-79
2020/12/27 17:44:24;;;;;;;0.70;0.70;;;6.90;99.90;;;;;;4812748;29;20516;-79
2020/12/27 17:47:01;;;;;;;0.70;0.70;;;6.90;99.90;;;;;;4816125;29;20842;-79
2020/12/27 17:49:51;;;;;;;0.83;0.73;;;6.70;99.90;;;;;;4809659;29;20481;-79
2020/12/27 17:53:20;;;;;;;0.80;0.80;;;6.60;99.90;;;;;;4779263;29;21862;-78
2020/12/27 17:57:06;;;;;;;1.27;0.70;;;6.40;99.90;;;;;;4727506;30;20839;-81
2020/12/27 18:00:10;;;;;;;0.67;0.60;;;6.30;99.90;;;;;;4730589;29;20450;-79
2020/12/27 18:06:08;;;;;;;0.50;0.50;;;6.40;99.90;;;;;;4878680;29;20461;-77
2020/12/27 18:13:24;;;;;;;0.80;0.80;;;6.30;99.90;;;;;;4890149;29;20476;-77
2020/12/27 18:24:47;;;;;;;1.17;1.13;;;6.40;99.90;;;;;;4799197;29;20489;-78
2020/12/27 18:27:53;;;;;;;2.20;1.37;;;6.50;99.90;;;;;;4825903;29;20469;-80
2020/12/27 18:46:25;;;;;;;;;;;;;;;;;;;;;
2020/12/27 19:10:41;;;;;;;0.70;0.60;;;6.50;99.90;;;;;;4978154;28;20482;-79
2020/12/27 19:18:08;;;;;;;0.63;0.63;;;6.30;99.90;;;;;;4884924;29;20522;-80
2020/12/27 19:24:47;;;;;;;0.80;0.70;;;6.60;99.90;;;;;;4895326;29;20475;-80
2020/12/27 19:32:28;;;;;;;0.80;0.77;;;6.60;99.90;;;;;;4829995;29;20518;-79
2020/12/27 19:35:20;;;;;;;0.73;0.53;;;6.60;99.90;;;;;;4764092;29;20500;-80
2020/12/27 19:42:32;;;;;;;0.77;0.77;;;7.00;99.90;;;;;;4737657;30;20589;-79
2020/12/27 19:46:12;;;;;;;0.40;0.40;;;7.20;99.90;;;;;;4843040;29;20449;-80
2020/12/27 19:49:10;;;;;;;0.50;0.50;;;7.30;99.90;;;;;;4925767;28;20459;-80
2020/12/27 19:53:05;;;;;;;;;;;;;;;;;;;;;
2020/12/27 20:14:58;;;;;;;0.50;0.40;;;7.50;99.90;;;;;;5002790;28;20538;-78
2020/12/27 20:18:28;;;;;;;0.50;0.50;;;7.40;99.90;;;;;;5007077;28;20484;-78
2020/12/27 20:22:51;;;;;;;;;;;;;;;;;;;;;
2020/12/27 20:25:42;;;;;;;0.60;0.60;;;7.50;99.90;;;;;;4979866;28;21092;-80
2020/12/27 20:32:50;;;;;;;;;;;;;;;;;;;;;
2020/12/27 20:40:08;;;;;;;0.57;0.40;;;7.50;99.90;;;;;;4991687;28;20535;-78
2020/12/27 20:43:18;;;;;;;0.63;0.50;;;7.50;99.90;;;;;;4983849;28;20474;-78
2020/12/27 20:46:30;;;;;;;0.57;0.57;;;7.50;99.90;;;;;;4979883;28;20427;-79
2020/12/27 20:49:41;;;;;;;0.70;0.70;;;7.30;99.90;;;;;;4989826;28;20557;-79
2020/12/27 20:56:48;;;;;;;0.60;0.50;;;7.50;99.90;;;;;;5676353;22;20548;-78
2020/12/27 21:00:35;;;;;;;1.13;0.40;;;7.60;99.90;;;;;;4987702;28;20535;-79
2020/12/27 21:04:18;;;;;;;;;;;;;;;;;;;;;
2020/12/27 21:08:09;;;;;;;0.60;0.60;;;7.50;99.90;;;;;;4974052;28;20444;-80
2020/12/27 21:12:15;;;;;;;0.60;0.40;;;7.40;99.90;;;;;;4918939;29;20620;-80
2020/12/27 21:19:49;;;;;;;;;;;;;;;;;;;;;
2020/12/27 21:29:39;;;;;;;0.50;0.50;;;7.50;99.90;;;;;;5011798;28;20426;-78
2020/12/27 21:33:31;;;;;;;0.50;0.50;;;7.50;99.90;;;;;;5007637;28;20454;-78
2020/12/27 21:41:22;;;;;;;0.40;0.40;;;7.40;99.90;;;;;;4827643;29;20561;-79
2020/12/27 21:44:42;;;;;;;0.77;0.70;;;7.50;99.90;;;;;;4923758;29;20467;-79
2020/12/27 21:51:46;;;;;;;0.60;0.60;;;7.30;99.90;;;;;;4925636;29;20487;-80
2020/12/27 21:55:19;;;;;;;1.00;0.90;;;7.50;99.90;;;;;;4924369;29;20485;-80
2020/12/27 21:58:20;;;;;;;0.60;0.53;;;7.50;99.90;;;;;;4830131;29;20476;-78
2020/12/27 22:01:15;;;;;;;0.53;0.50;;;7.40;99.90;;;;;;4815024;29;20489;-80
2020/12/27 22:04:02;;;;;;;0.50;0.50;;;7.40;99.90;;;;;;4807002;29;20466;-81
2020/12/27 22:06:45;;;;;;;0.80;0.60;;;7.50;99.90;;;;;;4817448;29;21014;-80
2020/12/27 22:09:48;;;;;;;0.60;0.60;;;7.60;99.90;;;;;;4838282;29;20535;-80
2020/12/27 22:12:55;;;;;;;0.60;0.60;;;7.40;99.90;;;;;;4837666;29;20485;-79
2020/12/27 22:19:44;;;;;;;0.50;0.50;;;7.50;99.90;;;;;;4898042;29;20458;-79
2020/12/27 22:22:28;;;;;;;1.03;0.80;;;7.60;99.90;;;;;;4938727;28;20467;-78
2020/12/27 22:25:38;;;;;;;0.50;0.50;;;7.50;99.90;;;;;;5000867;28;20443;-77
2020/12/27 22:28:21;;;;;;;0.90;0.50;;;7.60;99.90;;;;;;4951320;29;20474;-78
2020/12/27 22:30:48;;;;;;;0.60;0.60;;;7.50;99.90;;;;;;4950188;29;21030;-78
2020/12/27 22:38:03;;;;;;;0.50;0.50;;;7.70;99.90;;;;;;4915461;29;20493;-79
2020/12/27 22:41:22;;;;;;;1.10;0.70;;;7.70;99.90;;;;;;4955917;28;20460;-79
2020/12/27 22:44:49;;;;;;;0.40;0.40;;;7.60;99.90;;;;;;4941936;28;20442;-78
2020/12/27 22:47:48;;;;;;;0.60;0.40;;;7.70;99.90;;;;;;4961208;28;20460;-79
2020/12/27 22:53:46;;;;;;;0.60;0.60;;;7.60;99.90;;;;;;4992325;28;20547;-79
2020/12/27 22:56:20;;;;;;;0.90;0.60;;;7.70;99.90;;;;;;4990900;28;20463;-79
2020/12/27 22:59:36;;;;;;;;;;;;;;;;;;;;;
2020/12/27 23:02:21;;;;;;;0.70;0.63;;;7.50;99.90;;;;;;4990383;28;20470;-79
2020/12/27 23:05:33;;;;;;;0.83;0.40;;;7.60;99.90;;;;;;4993927;28;20431;-79
2020/12/27 23:08:30;;;;;;;0.60;0.60;;;7.70;99.90;;;;;;4899049;28;20438;-79
2020/12/27 23:12:01;;;;;;;1.23;0.60;;;7.50;99.90;;;;;;4993970;28;20471;-78
2020/12/27 23:14:58;;;;;;;;;;;;;;;;;;;;;
2020/12/27 23:17:31;;;;;;;0.60;0.50;;;7.50;99.90;;;;;;4989494;28;20584;-77
2020/12/27 23:20:50;;;;;;;0.60;0.60;;;7.60;99.90;;;;;;4944173;28;20483;-79
2020/12/27 23:23:46;;;;;;;0.90;0.60;;;7.60;99.90;;;;;;4976321;28;21328;-79
2020/12/27 23:27:15;;;;;;;1.20;0.80;;;7.60;99.90;;;;;;4979904;28;20466;-78
2020/12/27 23:34:54;;;;;;;0.80;0.80;;;7.60;99.90;;;;;;4942793;28;20480;-78
2020/12/27 23:37:48;;;;;;;0.67;0.50;;;7.50;99.90;;;;;;4920389;28;20458;-77
2020/12/27 23:41:04;;;;;;;0.60;0.60;;;7.60;99.90;;;;;;4976994;28;20550;-78
2020/12/27 23:43:46;;;;;;;0.60;0.53;;;7.60;99.90;;;;;;4957432;28;20460;-78
2020/12/27 23:46:45;;;;;;;0.80;0.70;;;7.60;99.90;;;;;;4983778;28;20443;-79
2020/12/27 23:49:41;;;;;;;1.70;0.73;;;7.60;99.90;;;;;;4979370;28;20515;-79
2020/12/27 23:53:02;;;;;;;1.13;0.50;;;7.60;99.90;;;;;;4992780;28;20484;-78
2020/12/27 23:56:42;;;;;;;0.70;0.70;;;7.60;99.90;;;;;;4981973;28;20455;-81
2020/12/27 23:59:38;;;;;;;0.50;0.50;;;7.40;99.90;;;;;;4871771;28;21656;-81
